Time;durP1;ratioP1;P1;durP2;ratioP2;P2;SDS_P1;SDS_P2;PMS_P1;PMS_P2;Temp;Humidity;BMP_temperature;BMP_pressure;BME280_temperature;BME280_humidity;BME280_pressure;Samples;Min_cycle;Max_cycle;Signal;HPM_P1;HPM_P2
2023/05/24 00:01:24;;;;;;;7.60;6.43;;;;;;;18.97;98.86;100059.81;5108174;28;20031;-65
2023/05/24 00:03:53;;;;;;;7.97;6.45;;;;;;;18.90;98.95;100039.88;5108640;28;20024;-65
2023/05/24 00:06:19;;;;;;;9.07;6.45;;;;;;;18.98;99.33;100052.47;5106012;28;20020;-65
2023/05/24 00:08:45;;;;;;;9.48;7.10;;;;;;;18.98;99.11;100039.72;5109247;28;20487;-64
2023/05/24 00:11:11;;;;;;;13.05;7.85;;;;;;;19.00;98.84;100044.97;5112901;28;20024;-65
2023/05/24 00:13:37;;;;;;;16.10;7.25;;;;;;;18.95;99.85;100045.56;5112762;28;20116;-65
2023/05/24 00:16:02;;;;;;;10.00;7.15;;;;;;;18.89;99.90;100043.63;5113557;28;20059;-65
2023/05/24 00:18:31;;;;;;;9.27;6.85;;;;;;;18.91;99.39;100044.28;5110993;28;20024;-65
2023/05/24 00:20:57;;;;;;;8.88;7.25;;;;;;;18.86;100.00;100037.75;5113218;28;20039;-64
2023/05/24 00:23:25;;;;;;;9.23;7.40;;;;;;;18.80;100.00;100031.19;5112781;28;20039;-65
2023/05/24 00:25:51;;;;;;;9.88;7.15;;;;;;;18.68;100.00;100015.59;5113197;28;20059;-65
2023/05/24 00:28:16;;;;;;;9.25;7.22;;;;;;;18.72;100.00;100042.19;5112789;28;20051;-64
2023/05/24 00:30:42;;;;;;;10.68;7.70;;;;;;;18.67;100.00;100027.50;5112911;28;20020;-65
2023/05/24 00:33:07;;;;;;;14.55;7.88;;;;;;;18.65;100.00;100022.28;5112654;28;20480;-65
2023/05/24 00:35:33;;;;;;;8.48;7.10;;;;;;;18.68;100.00;100034.63;5112393;28;20065;-65
2023/05/24 00:37:58;;;;;;;8.23;7.03;;;;;;;18.66;100.00;100039.41;5112578;28;20035;-64
2023/05/24 00:40:24;;;;;;;11.85;7.80;;;;;;;18.64;100.00;100033.34;5112190;28;20071;-65
2023/05/24 00:42:49;;;;;;;9.32;7.22;;;;;;;18.64;100.00;100036.88;5112470;27;20050;-65
2023/05/24 00:45:15;;;;;;;9.88;7.57;;;;;;;18.61;100.00;100020.13;5112732;28;20028;-64
2023/05/24 00:47:41;;;;;;;11.43;7.82;;;;;;;18.60;100.00;100029.31;5112532;28;20831;-64
2023/05/24 00:50:11;;;;;;;8.55;7.40;;;;;;;18.65;100.00;100027.72;5112227;28;20107;-65
2023/05/24 00:52:37;;;;;;;9.88;7.72;;;;;;;18.66;100.00;100021.22;5111086;28;20028;-64
2023/05/24 00:55:03;;;;;;;7.70;6.88;;;;;;;18.57;100.00;100005.25;5112058;28;20024;-65
2023/05/24 00:57:29;;;;;;;8.80;7.65;;;;;;;18.56;100.00;100012.56;5112273;28;20769;-64
2023/05/24 00:59:55;;;;;;;8.73;7.82;;;;;;;18.61;100.00;100023.69;5110865;28;20395;-65
2023/05/24 01:02:21;;;;;;;8.00;6.95;;;;;;;18.61;100.00;100020.97;5112390;28;20015;-65
2023/05/24 01:04:47;;;;;;;8.43;7.22;;;;;;;18.62;100.00;100019.09;5112292;27;20023;-65
2023/05/24 01:07:36;;;;;;;9.38;7.63;;;;;;;18.63;100.00;100016.19;5111966;28;20383;-64
2023/05/24 01:10:10;;;;;;;9.13;7.50;;;;;;;18.63;100.00;100018.06;5109934;28;20034;-65
2023/05/24 01:12:48;;;;;;;;;;;;;;;18.61;100.00;100026.41;5112503;28;20518;-66
2023/05/24 01:15:21;;;;;;;17.73;8.57;;;;;;;18.61;100.00;100018.28;5110409;28;20027;-65
2023/05/24 01:18:04;;;;;;;10.37;8.37;;;;;;;18.60;100.00;100013.84;5112052;28;20344;-65
2023/05/24 01:20:32;;;;;;;10.95;7.57;;;;;;;18.60;100.00;100010.31;5110645;28;20663;-65
2023/05/24 01:23:15;;;;;;;8.60;7.60;;;;;;;18.60;99.96;100016.56;5111772;28;20035;-64
2023/05/24 01:26:12;;;;;;;12.30;7.73;;;;;;;18.57;100.00;100016.13;5112285;28;20106;-69
2023/05/24 01:28:38;;;;;;;8.70;7.22;;;;;;;18.48;100.00;100012.69;5110718;28;20252;-69
2023/05/24 01:31:05;;;;;;;10.98;7.88;;;;;;;18.38;100.00;100000.47;5112267;28;20127;-69
2023/05/24 01:33:31;;;;;;;8.50;7.22;;;;;;;18.39;100.00;100000.28;5111961;28;20035;-69
2023/05/24 01:35:56;;;;;;;9.73;7.88;;;;;;;18.36;100.00;100003.38;5112516;28;20039;-69
2023/05/24 01:38:22;;;;;;;8.32;7.30;;;;;;;18.27;100.00;100001.75;5112060;28;20468;-69
2023/05/24 01:40:50;;;;;;;10.05;7.85;;;;;;;18.22;100.00;99996.06;5111900;28;20023;-69
2023/05/24 01:43:39;;;;;;;10.75;7.72;;;;;;;18.20;100.00;99998.13;5111733;28;20035;-69
2023/05/24 01:46:10;;;;;;;11.93;7.68;;;;;;;18.21;100.00;100005.22;5110133;28;20464;-69
2023/05/24 01:48:53;;;;;;;10.02;8.43;;;;;;;18.19;100.00;100006.47;5112140;28;20102;-69
2023/05/24 01:51:22;;;;;;;10.25;8.23;;;;;;;18.13;100.00;100011.59;5109529;28;20353;-69
2023/05/24 01:53:51;;;;;;;12.88;8.40;;;;;;;18.09;100.00;100014.91;5110383;28;20092;-69
2023/05/24 01:56:18;;;;;;;9.55;8.10;;;;;;;18.08;100.00;100015.94;5111480;28;20457;-69
2023/05/24 01:58:46;;;;;;;8.73;7.63;;;;;;;18.05;100.00;100014.44;5111681;27;20447;-69
2023/05/24 02:01:12;;;;;;;9.48;8.32;;;;;;;18.01;100.00;100015.00;5111694;28;20455;-69
2023/05/24 02:03:39;;;;;;;12.05;8.00;;;;;;;17.99;100.00;100019.78;5111507;28;20023;-69
2023/05/24 02:06:05;;;;;;;9.82;7.82;;;;;;;17.93;100.00;100012.41;5111697;28;20410;-69
2023/05/24 02:08:31;;;;;;;9.40;8.40;;;;;;;17.88;100.00;100007.56;5110271;28;20486;-69
2023/05/24 02:10:56;;;;;;;12.18;8.73;;;;;;;17.90;100.00;100019.03;5111607;28;20028;-69
2023/05/24 02:13:21;;;;;;;9.77;7.95;;;;;;;17.83;100.00;100011.84;5111085;28;20075;-69
2023/05/24 02:15:47;;;;;;;10.43;8.30;;;;;;;17.78;100.00;100009.72;5111416;28;20055;-69
2023/05/24 02:18:13;;;;;;;10.95;8.38;;;;;;;17.79;100.00;100015.97;5111458;28;20614;-69
2023/05/24 02:20:39;;;;;;;9.95;7.93;;;;;;;17.70;100.00;100007.09;5111058;28;20035;-69
2023/05/24 02:23:05;;;;;;;11.55;8.30;;;;;;;17.74;100.00;100015.69;5111332;28;20031;-69
2023/05/24 02:25:32;;;;;;;12.73;7.85;;;;;;;17.72;100.00;100025.88;5110996;28;20053;-69
2023/05/24 02:27:58;;;;;;;10.80;8.52;;;;;;;17.74;100.00;100027.38;5111320;28;20563;-69
2023/05/24 02:30:24;;;;;;;9.20;7.88;;;;;;;17.70;100.00;100019.78;5110706;28;20055;-69
2023/05/24 02:32:50;;;;;;;9.68;8.27;;;;;;;17.66;100.00;100011.22;5111073;28;20065;-69
2023/05/24 02:35:15;;;;;;;10.65;8.45;;;;;;;17.65;100.00;100005.97;5110795;28;20043;-69
2023/05/24 02:37:41;;;;;;;12.18;9.15;;;;;;;17.66;100.00;100013.91;5111006;28;20072;-69
2023/05/24 02:40:07;;;;;;;13.07;8.45;;;;;;;17.67;100.00;100021.03;5109835;28;20084;-69
2023/05/24 02:42:32;;;;;;;10.23;8.98;;;;;;;17.63;100.00;100019.72;5109099;28;20028;-69
2023/05/24 02:44:57;;;;;;;11.32;8.93;;;;;;;17.58;100.00;100019.44;5111131;28;20023;-69
2023/05/24 02:47:25;;;;;;;10.32;9.20;;;;;;;17.55;100.00;100021.69;5110770;28;20031;-69
2023/05/24 02:49:51;;;;;;;10.05;8.90;;;;;;;17.47;100.00;100028.03;5110644;28;20032;-69
2023/05/24 02:52:20;;;;;;;10.80;9.70;;;;;;;17.47;100.00;100029.88;5110597;28;20026;-69
2023/05/24 02:54:46;;;;;;;11.73;8.90;;;;;;;17.46;100.00;100031.78;5110684;28;20019;-69
2023/05/24 02:57:11;;;;;;;10.68;8.65;;;;;;;17.41;100.00;100028.75;5109624;28;20028;-69
2023/05/24 02:59:37;;;;;;;13.20;9.60;;;;;;;17.37;100.00;100032.84;5110643;28;20080;-69
2023/05/24 03:02:02;;;;;;;12.93;8.95;;;;;;;17.39;100.00;100035.38;5110939;28;20436;-69
2023/05/24 03:04:28;;;;;;;13.98;9.32;;;;;;;17.39;100.00;100043.50;5110484;28;20055;-69
2023/05/24 03:06:53;;;;;;;13.77;10.10;;;;;;;17.36;100.00;100033.03;5110840;28;20063;-69
2023/05/24 03:09:19;;;;;;;12.50;9.32;;;;;;;17.25;100.00;100017.22;5110734;28;20120;-69
2023/05/24 03:11:44;;;;;;;12.88;10.13;;;;;;;17.25;100.00;100026.19;5110459;28;20051;-69
2023/05/24 03:14:10;;;;;;;10.52;9.38;;;;;;;17.22;100.00;100018.41;5110609;28;20055;-69
2023/05/24 03:16:36;;;;;;;14.48;10.02;;;;;;;17.32;100.00;100029.84;5109070;28;20034;-69
2023/05/24 03:19:02;;;;;;;12.88;11.02;;;;;;;17.28;100.00;100025.00;5110562;28;20040;-69
2023/05/24 03:21:28;;;;;;;14.63;10.82;;;;;;;17.33;100.00;100030.69;5110172;28;20112;-70
2023/05/24 03:23:54;;;;;;;14.38;10.95;;;;;;;17.29;100.00;100019.38;5110346;28;20093;-69
2023/05/24 03:26:19;;;;;;;13.00;10.68;;;;;;;17.35;100.00;100026.75;5108766;28;20023;-69
2023/05/24 03:28:46;;;;;;;14.32;10.98;;;;;;;17.35;100.00;100028.66;5110074;28;20039;-69
2023/05/24 03:31:12;;;;;;;12.52;10.93;;;;;;;17.36;100.00;100027.63;5110371;28;20053;-69
2023/05/24 03:33:37;;;;;;;13.15;11.43;;;;;;;17.38;100.00;100031.00;5108718;28;20135;-69
2023/05/24 03:36:04;;;;;;;13.80;10.85;;;;;;;17.41;100.00;100034.16;5110299;28;20034;-69
2023/05/24 03:38:30;;;;;;;13.30;11.02;;;;;;;17.41;100.00;100027.91;5108576;28;20046;-69
2023/05/24 03:40:56;;;;;;;17.35;12.02;;;;;;;17.42;100.00;100026.88;5108805;28;20033;-69
2023/05/24 03:43:21;;;;;;;13.88;11.45;;;;;;;17.45;100.00;100029.25;5109857;28;20107;-69
2023/05/24 03:45:47;;;;;;;12.85;11.10;;;;;;;17.53;100.00;100040.00;5114558;28;20015;-69
2023/05/24 03:48:12;;;;;;;18.08;11.95;;;;;;;17.59;100.00;100040.13;5111571;28;20028;-65
2023/05/24 03:50:38;;;;;;;16.13;11.68;;;;;;;17.69;100.00;100042.53;5113045;28;20031;-65
2023/05/24 03:53:03;;;;;;;12.95;11.27;;;;;;;17.72;100.00;100051.16;5112101;28;20055;-65
2023/05/24 03:55:29;;;;;;;14.80;11.02;;;;;;;17.76;100.00;100038.03;5112421;28;20586;-64
2023/05/24 03:57:54;;;;;;;18.48;12.57;;;;;;;17.89;100.00;100044.50;5111221;28;20568;-65
2023/05/24 04:00:20;;;;;;;16.02;12.27;;;;;;;17.89;100.00;100040.94;5111406;28;20411;-65
2023/05/24 04:02:45;;;;;;;13.35;11.95;;;;;;;18.03;100.00;100049.06;5112532;28;20031;-65
2023/05/24 04:05:12;;;;;;;16.17;11.40;;;;;;;18.15;100.00;100051.31;5112626;28;20144;-65
2023/05/24 04:07:38;;;;;;;14.38;11.10;;;;;;;18.20;100.00;100048.84;5112642;28;20028;-65
2023/05/24 04:10:08;;;;;;;12.90;11.02;;;;;;;18.34;100.00;100053.44;5112837;28;20907;-65
2023/05/24 04:12:34;;;;;;;13.90;11.27;;;;;;;18.41;100.00;100060.63;5112631;27;20051;-65
2023/05/24 04:15:00;;;;;;;14.32;11.57;;;;;;;18.49;100.00;100049.69;5112734;28;20416;-65
2023/05/24 04:17:28;;;;;;;11.70;10.45;;;;;;;18.54;100.00;100062.69;5112622;28;20060;-64
2023/05/24 04:19:53;;;;;;;12.40;10.88;;;;;;;18.64;100.00;100055.06;5112272;28;20026;-65
2023/05/24 04:22:19;;;;;;;17.98;11.88;;;;;;;18.71;100.00;100064.97;5112229;28;20031;-64
2023/05/24 04:24:44;;;;;;;15.85;10.95;;;;;;;18.67;100.00;100054.69;5112124;28;20120;-65
2023/05/24 04:27:10;;;;;;;12.98;11.43;;;;;;;18.77;100.00;100063.34;5112241;28;20107;-64
2023/05/24 04:29:37;;;;;;;16.02;11.50;;;;;;;18.78;100.00;100065.88;5112641;28;20063;-65
2023/05/24 04:32:03;;;;;;;13.95;11.13;;;;;;;18.90;100.00;100083.38;5112764;27;20484;-69
2023/05/24 04:34:32;;;;;;;13.40;10.55;;;;;;;18.92;100.00;100075.00;5112232;28;20035;-69
2023/05/24 04:36:58;;;;;;;12.23;9.63;;;;;;;18.96;99.28;100063.53;5112445;27;20023;-68
2023/05/24 04:39:24;;;;;;;14.77;11.35;;;;;;;18.98;99.03;100066.91;5113044;28;20020;-69
2023/05/24 04:41:50;;;;;;;17.50;10.93;;;;;;;18.89;99.55;100067.25;5112015;28;20035;-69
2023/05/24 04:44:16;;;;;;;14.25;9.95;;;;;;;19.00;98.88;100078.44;5111524;28;20639;-69
2023/05/24 04:46:41;;;;;;;10.35;9.10;;;;;;;18.89;100.00;100081.66;5113633;28;20039;-68
2023/05/24 04:49:07;;;;;;;13.20;9.23;;;;;;;18.86;100.00;100079.31;5113256;27;20020;-69
2023/05/24 04:51:33;;;;;;;11.02;8.93;;;;;;;18.79;100.00;100075.72;5113159;28;20401;-69
2023/05/24 04:54:00;;;;;;;12.85;8.45;;;;;;;18.83;99.67;100077.00;5113132;28;20460;-68
2023/05/24 04:56:25;;;;;;;11.73;8.65;;;;;;;18.79;100.00;100083.84;5113003;28;20279;-69
2023/05/24 04:58:51;;;;;;;10.65;8.95;;;;;;;18.75;100.00;100085.28;5113178;28;20159;-68
2023/05/24 05:01:17;;;;;;;13.32;8.50;;;;;;;18.80;100.00;100087.44;5113183;28;20050;-68
2023/05/24 05:03:44;;;;;;;10.65;9.02;;;;;;;18.85;99.79;100085.81;5111472;28;20046;-68
2023/05/24 05:06:10;;;;;;;13.60;9.23;;;;;;;18.98;99.47;100090.53;5113343;28;20375;-68
2023/05/24 05:08:35;;;;;;;9.57;8.23;;;;;;;19.03;98.75;100093.53;5113112;28;20053;-68
2023/05/24 05:11:01;;;;;;;10.07;8.95;;;;;;;19.06;99.16;100084.97;5113157;28;20031;-69
2023/05/24 05:13:27;;;;;;;10.43;8.68;;;;;;;19.19;98.75;100088.63;5110293;28;20044;-68
2023/05/24 05:15:52;;;;;;;13.18;10.00;;;;;;;19.33;97.08;100093.22;5112462;28;20015;-68
2023/05/24 05:18:18;;;;;;;9.98;8.90;;;;;;;19.43;96.45;100098.31;5113147;28;20032;-68
2023/05/24 05:20:43;;;;;;;10.57;8.52;;;;;;;19.54;96.25;100085.00;5111491;28;20418;-68
2023/05/24 05:23:08;;;;;;;12.35;7.90;;;;;;;19.66;95.84;100096.19;5113052;28;20433;-69
2023/05/24 05:25:34;;;;;;;10.25;8.15;;;;;;;19.82;95.23;100091.28;5112478;28;20472;-68
2023/05/24 05:28:00;;;;;;;11.70;8.18;;;;;;;19.92;94.86;100086.31;5112628;28;20039;-69
2023/05/24 05:30:25;;;;;;;8.45;7.45;;;;;;;20.04;93.77;100072.97;5112821;28;20031;-69
2023/05/24 05:32:51;;;;;;;9.95;7.93;;;;;;;20.26;92.91;100087.38;5112804;27;20476;-68
2023/05/24 05:35:16;;;;;;;9.32;7.57;;;;;;;20.48;91.46;100099.84;5112704;27;20032;-69
2023/05/24 05:37:41;;;;;;;11.82;9.18;;;;;;;20.70;87.99;100098.66;5112447;28;20034;-68
2023/05/24 05:40:07;;;;;;;9.25;7.93;;;;;;;20.84;87.38;100105.81;5112673;28;20023;-68
2023/05/24 05:42:33;;;;;;;9.00;7.82;;;;;;;20.83;87.44;100091.34;5112581;27;20102;-69
2023/05/24 05:44:58;;;;;;;10.35;7.78;;;;;;;21.00;86.17;100092.69;5112134;28;20398;-68
2023/05/24 05:47:23;;;;;;;11.05;8.07;;;;;;;21.08;85.77;100102.53;5112349;28;20032;-68
2023/05/24 05:49:49;;;;;;;9.50;8.25;;;;;;;21.30;83.53;100118.53;5112531;28;20016;-68
2023/05/24 05:52:14;;;;;;;9.73;7.68;;;;;;;21.34;83.22;100095.25;5111394;28;20027;-68
2023/05/24 05:54:40;;;;;;;8.75;7.53;;;;;;;21.49;82.87;100111.41;5112250;28;20024;-68
2023/05/24 05:57:09;;;;;;;12.73;8.48;;;;;;;21.60;80.73;100116.25;5110727;28;20035;-68
2023/05/24 05:59:34;;;;;;;10.43;7.93;;;;;;;21.81;79.83;100113.31;5111964;28;20035;-68
2023/05/24 06:02:01;;;;;;;10.95;7.82;;;;;;;21.90;78.75;100121.06;5111123;28;20076;-68
2023/05/24 06:04:26;;;;;;;9.75;7.88;;;;;;;21.93;78.77;100123.38;5110873;28;20433;-68
2023/05/24 06:06:51;;;;;;;13.88;8.23;;;;;;;21.99;78.54;100116.25;5111667;28;20023;-68
2023/05/24 06:09:17;;;;;;;11.35;7.53;;;;;;;22.18;76.50;100123.53;5112077;28;20077;-68
2023/05/24 06:11:43;;;;;;;14.35;9.00;;;;;;;22.26;75.74;100129.63;5112162;28;20031;-68
2023/05/24 06:14:11;;;;;;;8.77;7.80;;;;;;;22.22;76.60;100133.00;5110697;28;20089;-69
2023/05/24 06:16:40;;;;;;;9.65;7.55;;;;;;;22.19;76.56;100141.63;5110635;28;20054;-68
2023/05/24 06:19:06;;;;;;;10.13;8.68;;;;;;;22.12;76.77;100140.81;5111240;28;20024;-69
2023/05/24 06:21:32;;;;;;;12.95;9.40;;;;;;;22.17;76.32;100141.84;5112067;28;20387;-69
2023/05/24 06:23:58;;;;;;;13.40;9.50;;;;;;;22.17;76.43;100146.47;5111602;28;20035;-69
2023/05/24 06:26:25;;;;;;;11.68;9.18;;;;;;;21.99;77.16;100143.56;5111657;28;20084;-69
2023/05/24 06:28:51;;;;;;;12.50;9.02;;;;;;;21.73;78.58;100138.13;5109764;28;20384;-68
2023/05/24 06:31:17;;;;;;;12.32;9.43;;;;;;;21.59;79.98;100136.41;5110571;28;20032;-69
2023/05/24 06:33:43;;;;;;;13.63;8.20;;;;;;;21.47;80.67;100138.09;5111779;28;20034;-69
2023/05/24 06:36:08;;;;;;;10.50;8.63;;;;;;;21.61;80.72;100161.59;5111325;27;20031;-69
2023/05/24 06:38:35;;;;;;;12.13;9.05;;;;;;;21.46;81.05;100144.56;5111459;28;20423;-69
2023/05/24 06:41:00;;;;;;;10.95;9.73;;;;;;;21.52;81.32;100154.66;5111758;28;20480;-69
2023/05/24 06:43:26;;;;;;;11.40;9.27;;;;;;;21.49;81.74;100150.47;5111219;28;20023;-69
2023/05/24 06:45:51;;;;;;;10.63;9.18;;;;;;;21.61;81.45;100147.97;5110088;28;20015;-69
2023/05/24 06:48:16;;;;;;;9.82;8.13;;;;;;;21.64;80.61;100140.16;5111391;28;20665;-69
2023/05/24 06:50:42;;;;;;;12.35;9.40;;;;;;;21.82;79.81;100153.22;5110143;28;20038;-69
2023/05/24 06:53:08;;;;;;;12.35;8.50;;;;;;;21.85;79.99;100153.66;5111809;28;20019;-69
2023/05/24 06:55:33;;;;;;;8.85;7.82;;;;;;;21.89;79.53;100151.31;5111418;28;20024;-69
2023/05/24 06:57:59;;;;;;;11.35;8.52;;;;;;;21.93;78.76;100160.78;5111540;28;20056;-69
2023/05/24 07:00:26;;;;;;;13.30;8.57;;;;;;;22.07;77.37;100166.03;5110750;28;20031;-69
2023/05/24 07:02:51;;;;;;;11.82;10.30;;;;;;;22.02;77.13;100157.63;5109556;27;20051;-69
2023/05/24 07:05:17;;;;;;;12.13;9.93;;;;;;;22.03;75.89;100148.34;5110184;28;20020;-69
2023/05/24 07:07:43;;;;;;;9.98;8.98;;;;;;;21.98;77.44;100164.56;5111649;27;20106;-69
2023/05/24 07:10:10;;;;;;;12.05;10.02;;;;;;;22.01;76.75;100155.94;5110307;28;20427;-69
2023/05/24 07:12:36;;;;;;;11.63;8.23;;;;;;;22.01;77.42;100168.75;5111074;28;20650;-69
2023/05/24 07:15:03;;;;;;;13.75;10.32;;;;;;;22.15;76.78;100170.41;5111079;28;20034;-69
2023/05/24 07:17:28;;;;;;;13.70;9.13;;;;;;;22.34;74.61;100175.84;5111055;28;20027;-69
2023/05/24 07:19:54;;;;;;;10.35;8.43;;;;;;;22.29;74.05;100172.09;5107301;28;20038;-69
2023/05/24 07:22:19;;;;;;;12.43;8.10;;;;;;;22.19;74.25;100163.50;5111134;28;20395;-69
2023/05/24 07:24:45;;;;;;;14.15;8.98;;;;;;;22.31;75.46;100172.69;5110526;28;20024;-69
2023/05/24 07:27:10;;;;;;;11.02;8.20;;;;;;;22.29;75.73;100170.16;5110078;28;20024;-65
2023/05/24 07:29:36;;;;;;;10.60;7.72;;;;;;;22.38;74.77;100170.81;5109134;28;20023;-65
2023/05/24 07:32:02;;;;;;;9.18;7.72;;;;;;;22.52;75.07;100175.19;5108559;28;20026;-65
2023/05/24 07:34:29;;;;;;;14.93;10.60;;;;;;;22.78;72.87;100172.38;5104872;28;20027;-65
2023/05/24 07:36:57;;;;;;;10.38;8.73;;;;;;;22.72;73.46;100177.84;5107953;28;20493;-65
2023/05/24 07:39:24;;;;;;;11.52;8.90;;;;;;;22.79;73.52;100176.78;5109126;28;20023;-65
2023/05/24 07:41:50;;;;;;;10.30;8.98;;;;;;;22.73;73.29;100185.03;5109338;28;20134;-65
2023/05/24 07:44:15;;;;;;;8.75;7.95;;;;;;;22.63;72.84;100169.06;5109298;28;20102;-65
2023/05/24 07:46:41;;;;;;;12.65;9.57;;;;;;;22.63;72.39;100176.44;5109208;28;20110;-65
2023/05/24 07:49:06;;;;;;;9.05;8.15;;;;;;;22.60;72.39;100182.34;5109281;28;20035;-65
2023/05/24 07:51:32;;;;;;;10.95;9.00;;;;;;;22.62;73.98;100181.06;5109143;28;20036;-65
2023/05/24 07:53:58;;;;;;;9.68;7.68;;;;;;;22.55;75.19;100179.41;5108923;28;20476;-65
2023/05/24 07:56:23;;;;;;;8.75;7.78;;;;;;;22.59;75.49;100184.22;5109145;28;20028;-65
2023/05/24 07:58:50;;;;;;;13.98;9.75;;;;;;;22.77;75.01;100186.25;5109171;28;20036;-65
2023/05/24 08:01:19;;;;;;;14.32;10.20;;;;;;;22.82;74.73;100179.09;5109108;28;20024;-65
2023/05/24 08:03:44;;;;;;;13.10;10.50;;;;;;;22.85;75.15;100186.84;5108977;28;20122;-65
2023/05/24 08:06:11;;;;;;;14.13;8.30;;;;;;;22.80;75.56;100174.91;5108962;28;20098;-65
2023/05/24 08:08:39;;;;;;;11.15;7.75;;;;;;;22.75;73.88;100178.28;5108506;28;20036;-65
2023/05/24 08:11:04;;;;;;;8.18;6.95;;;;;;;22.77;73.61;100175.31;5107695;28;20542;-65
2023/05/24 08:13:30;;;;;;;8.55;7.03;;;;;;;22.91;73.37;100179.66;5108443;28;20047;-65
2023/05/24 08:15:57;;;;;;;9.55;7.55;;;;;;;23.00;72.28;100184.69;5108647;28;20035;-65
2023/05/24 08:18:22;;;;;;;10.90;7.95;;;;;;;23.12;72.06;100188.41;5108596;28;20020;-65
2023/05/24 08:20:47;;;;;;;9.25;7.50;;;;;;;23.15;71.63;100185.22;5108684;28;20850;-65
2023/05/24 08:23:13;;;;;;;9.80;7.13;;;;;;;23.18;71.95;100190.25;5109037;28;20080;-65
2023/05/24 08:25:39;;;;;;;10.40;8.10;;;;;;;23.14;72.25;100185.44;5108631;28;20032;-65
2023/05/24 08:28:05;;;;;;;11.10;7.45;;;;;;;23.22;71.36;100186.06;5107414;28;20031;-65
2023/05/24 08:30:31;;;;;;;11.32;8.88;;;;;;;23.34;70.76;100191.72;5110120;28;20020;-65
2023/05/24 08:32:57;;;;;;;8.93;7.88;;;;;;;23.41;71.13;100187.03;5111270;28;20072;-66
2023/05/24 08:35:22;;;;;;;8.63;7.55;;;;;;;23.47;69.39;100177.94;5111004;28;20038;-66
2023/05/24 08:37:48;;;;;;;8.48;7.30;;;;;;;23.61;68.70;100195.94;5111819;28;20031;-66
2023/05/24 08:40:14;;;;;;;7.72;7.03;;;;;;;23.63;68.80;100193.81;5112676;28;20023;-66
2023/05/24 08:42:40;;;;;;;7.18;6.20;;;;;;;23.60;68.76;100194.25;5112371;28;20023;-66
2023/05/24 08:45:13;;;;;;;7.88;6.68;;;;;;;23.68;67.18;100213.16;5112509;28;20020;-65
2023/05/24 08:47:39;;;;;;;7.20;6.50;;;;;;;23.61;67.55;100202.25;5111700;28;20043;-65
2023/05/24 08:50:06;;;;;;;8.55;6.85;;;;;;;23.66;67.42;100196.94;5112661;28;20094;-66
2023/05/24 08:52:31;;;;;;;9.18;6.70;;;;;;;23.68;67.17;100199.47;5112031;28;20119;-66
2023/05/24 08:55:03;;;;;;;9.18;7.07;;;;;;;23.79;66.83;100204.22;5112230;28;20103;-66
2023/05/24 08:57:30;;;;;;;8.23;6.50;;;;;;;23.88;65.85;100208.34;5110468;28;20034;-66
2023/05/24 08:59:56;;;;;;;7.32;6.57;;;;;;;24.01;63.97;100208.28;5112102;28;20052;-66
2023/05/24 09:02:22;;;;;;;6.50;5.80;;;;;;;24.11;64.40;100203.97;5110474;28;20112;-66
2023/05/24 09:04:50;;;;;;;8.38;6.80;;;;;;;24.25;64.04;100208.25;5111663;28;20028;-66
2023/05/24 09:07:18;;;;;;;6.80;5.75;;;;;;;24.38;63.86;100199.91;5110696;28;20034;-66
2023/05/24 09:09:48;;;;;;;9.95;6.25;;;;;;;24.46;62.94;100207.00;5110436;28;20143;-65
2023/05/24 09:12:17;;;;;;;7.72;6.45;;;;;;;24.52;62.87;100211.59;5112354;28;20043;-66
2023/05/24 09:14:48;;;;;;;7.53;6.80;;;;;;;24.50;62.84;100213.69;5111904;28;20071;-66
2023/05/24 09:17:14;;;;;;;6.72;6.10;;;;;;;24.55;62.87;100215.78;5110765;28;20028;-66
2023/05/24 09:19:45;;;;;;;7.97;6.78;;;;;;;24.64;61.93;100217.19;5111518;28;20028;-66
2023/05/24 09:22:15;;;;;;;10.65;5.95;;;;;;;24.65;62.12;100221.59;5112102;28;20024;-65
2023/05/24 09:24:46;;;;;;;7.07;6.47;;;;;;;24.55;60.52;100196.56;5111396;28;20100;-66
2023/05/24 09:27:17;;;;;;;6.35;5.75;;;;;;;24.77;59.19;100217.03;5111540;28;20038;-65
2023/05/24 09:29:48;;;;;;;7.78;6.90;;;;;;;24.77;59.66;100219.78;5110145;28;20023;-66
2023/05/24 09:32:14;;;;;;;8.52;6.70;;;;;;;24.77;60.39;100208.81;5111654;28;20039;-66
2023/05/24 09:34:46;;;;;;;9.45;7.38;;;;;;;24.84;60.82;100215.91;5111359;28;20031;-66
2023/05/24 09:37:15;;;;;;;9.50;6.72;;;;;;;24.92;59.78;100217.50;5110908;28;20031;-66
2023/05/24 09:39:46;;;;;;;7.22;6.53;;;;;;;24.91;59.99;100222.13;5110988;28;20015;-66
2023/05/24 09:42:22;;;;;;;10.38;7.18;;;;;;;24.87;59.95;100222.81;5110397;27;20027;-66
2023/05/24 09:44:57;;;;;;;9.50;6.65;;;;;;;24.83;59.59;100218.88;5110119;28;20038;-66
2023/05/24 09:47:28;;;;;;;8.30;7.20;;;;;;;24.79;58.98;100210.25;5111058;28;20034;-66
2023/05/24 09:49:53;;;;;;;8.45;6.68;;;;;;;24.82;57.61;100214.47;5110039;28;20020;-66
2023/05/24 09:52:20;;;;;;;9.07;5.72;;;;;;;24.80;57.84;100227.56;5111554;28;20041;-66
2023/05/24 09:54:46;;;;;;;6.32;5.65;;;;;;;24.86;57.49;100216.50;5111324;28;20080;-67
2023/05/24 09:57:15;;;;;;;8.80;6.75;;;;;;;24.78;58.44;100202.25;5109850;28;20426;-66
2023/05/24 09:59:41;;;;;;;6.85;6.25;;;;;;;24.84;58.20;100204.91;5109410;28;20103;-66
2023/05/24 10:02:11;;;;;;;7.82;6.55;;;;;;;24.93;57.41;100213.69;5110937;28;20106;-66
2023/05/24 10:04:39;;;;;;;6.88;6.22;;;;;;;24.85;57.68;100203.03;5110611;28;20107;-65
2023/05/24 10:07:11;;;;;;;6.63;6.03;;;;;;;25.00;57.32;100211.69;5110471;28;20031;-66
2023/05/24 10:09:36;;;;;;;8.68;6.10;;;;;;;25.02;56.90;100198.59;5110386;28;20035;-65
2023/05/24 10:12:04;;;;;;;6.82;5.97;;;;;;;25.13;56.45;100209.63;5110712;28;20055;-65
2023/05/24 10:14:37;;;;;;;6.70;6.07;;;;;;;25.18;56.25;100206.19;5110993;28;20043;-66
2023/05/24 10:17:06;;;;;;;7.35;5.85;;;;;;;25.21;56.50;100200.22;5108764;28;20120;-66
2023/05/24 10:19:36;;;;;;;6.93;6.30;;;;;;;25.32;55.79;100208.53;5110322;28;20024;-66
2023/05/24 10:22:06;;;;;;;8.15;6.45;;;;;;;25.49;53.65;100201.31;5109456;28;20039;-66
2023/05/24 10:24:35;;;;;;;6.60;6.00;;;;;;;25.54;54.37;100206.94;5109160;28;21665;-66
2023/05/24 10:27:06;;;;;;;10.35;6.70;;;;;;;25.62;54.47;100211.25;5110644;28;20046;-66
2023/05/24 10:29:46;;;;;;;6.43;5.82;;;;;;;25.65;54.18;100213.53;5109782;28;20425;-66
2023/05/24 10:32:14;;;;;;;7.05;5.85;;;;;;;25.66;54.01;100187.75;5110152;28;20076;-69
2023/05/24 10:34:41;;;;;;;7.68;6.05;;;;;;;25.78;53.53;100202.34;5111817;28;20031;-69
2023/05/24 10:37:08;;;;;;;7.20;6.50;;;;;;;25.79;53.71;100206.78;5111093;28;20433;-69
2023/05/24 10:39:34;;;;;;;7.10;6.40;;;;;;;25.65;52.72;100191.56;5112524;28;20363;-69
2023/05/24 10:42:06;;;;;;;7.22;6.45;;;;;;;25.57;53.04;100191.91;5112431;28;20028;-68
2023/05/24 10:44:32;;;;;;;6.68;6.05;;;;;;;25.62;53.66;100203.00;5112163;28;20476;-69
2023/05/24 10:47:11;;;;;;;8.23;6.55;;;;;;;25.85;53.58;100197.56;5111140;28;20037;-68
2023/05/24 10:49:51;;;;;;;7.00;6.32;;;;;;;26.00;52.75;100206.25;5111805;28;20020;-69
2023/05/24 10:52:18;;;;;;;7.43;6.03;;;;;;;26.01;52.33;100202.41;5112235;28;20035;-69
2023/05/24 10:55:08;;;;;;;6.55;5.95;;;;;;;26.01;51.36;100158.44;5111321;28;20027;-69
2023/05/24 10:57:34;;;;;;;6.90;5.85;;;;;;;26.21;51.92;100191.91;5104159;28;20028;-69
2023/05/24 11:00:26;;;;;;;8.20;6.35;;;;;;;26.35;51.56;100185.91;5109350;28;20031;-69
2023/05/24 11:03:23;;;;;;;8.50;7.03;;;;;;;26.43;52.12;100181.97;5110879;28;20019;-69
2023/05/24 11:05:48;;;;;;;7.10;6.35;;;;;;;26.39;52.15;100186.28;5089736;28;20392;-69
2023/05/24 11:08:21;;;;;;;7.15;6.45;;;;;;;26.38;51.78;100190.13;5111777;28;20023;-69
2023/05/24 11:10:46;;;;;;;10.25;6.80;;;;;;;26.24;52.48;100191.44;5112678;28;20076;-69
2023/05/24 11:13:12;;;;;;;9.20;6.22;;;;;;;26.25;52.41;100184.88;5110456;28;20055;-66
2023/05/24 11:15:38;;;;;;;10.55;6.22;;;;;;;26.15;52.76;100187.38;5109906;28;20032;-65
2023/05/24 11:18:12;;;;;;;8.32;6.97;;;;;;;26.05;52.74;100182.47;5110173;28;20039;-65